createdAt,value
2016-10-04T00:00:32.059Z,1043.25
2016-10-04T00:01:32.053Z,1043.29
2016-10-04T00:02:32.046Z,1043.24
2016-10-04T00:03:32.040Z,1043.24
2016-10-04T00:04:32.032Z,1043.22
2016-10-04T00:05:32.026Z,1043.21
2016-10-04T00:06:32.021Z,1043.27
2016-10-04T00:07:32.015Z,1043.31
2016-10-04T00:08:33.209Z,1043.28
2016-10-04T00:09:32.002Z,1043.3
2016-10-04T00:10:31.994Z,1043.3
2016-10-04T00:11:31.987Z,1043.3
2016-10-04T00:12:31.983Z,1043.33
2016-10-04T00:13:31.976Z,1043.32
2016-10-04T00:14:31.967Z,1043.32
2016-10-04T00:15:31.963Z,1043.37
2016-10-04T00:16:31.956Z,1043.37
2016-10-04T00:17:31.948Z,1043.36
2016-10-04T00:18:31.944Z,1043.36
2016-10-04T00:19:31.936Z,1043.35
2016-10-04T00:20:31.930Z,1043.33
2016-10-04T00:21:31.924Z,1043.41
2016-10-04T00:22:31.919Z,1043.42
2016-10-04T00:23:31.911Z,1043.37
2016-10-04T00:24:31.905Z,1043.35
2016-10-04T00:25:31.897Z,1043.33
2016-10-04T00:26:31.890Z,1043.35
2016-10-04T00:27:31.887Z,1043.41
2016-10-04T00:28:31.877Z,1043.46
2016-10-04T00:29:31.870Z,1043.43
2016-10-04T00:30:31.867Z,1043.48
2016-10-04T00:31:31.860Z,1043.49
2016-10-04T00:32:31.851Z,1043.49
2016-10-04T00:33:31.846Z,1043.5
2016-10-04T00:34:31.841Z,1043.49
2016-10-04T00:35:31.834Z,1043.49
2016-10-04T00:36:31.826Z,1043.43
2016-10-04T00:37:31.821Z,1043.36
2016-10-04T00:38:31.819Z,1043.26
2016-10-04T00:39:31.807Z,1043.27
2016-10-04T00:40:31.800Z,1043.24
2016-10-04T00:41:31.796Z,1043.21
2016-10-04T00:42:31.790Z,1043.26
2016-10-04T00:43:31.783Z,1043.25
2016-10-04T00:44:31.775Z,1043.17
2016-10-04T00:45:31.770Z,1043.28
2016-10-04T00:46:31.761Z,1043.3
2016-10-04T00:47:31.755Z,1043.29
2016-10-04T00:48:31.751Z,1043.26
2016-10-04T00:49:31.745Z,1043.23
2016-10-04T00:50:31.735Z,1043.15
2016-10-04T00:52:31.726Z,1043.18
2016-10-04T00:53:32.199Z,1043.2
2016-10-04T00:54:31.804Z,1043.17
2016-10-04T00:55:31.706Z,1043.2
2016-10-04T00:56:31.698Z,1043.17
2016-10-04T00:57:31.913Z,1043.26
2016-10-04T00:58:31.685Z,1043.29
2016-10-04T00:59:31.680Z,1043.24
2016-10-04T01:00:31.674Z,1043.23
2016-10-04T01:01:31.777Z,1043.18
2016-10-04T01:02:31.659Z,1043.19
2016-10-04T01:03:31.652Z,1043.17
2016-10-04T01:04:32.123Z,1043.27
2016-10-04T01:05:31.640Z,1043.27
2016-10-04T01:06:31.648Z,1043.23
2016-10-04T01:07:31.627Z,1043.23
2016-10-04T01:08:31.621Z,1043.29
2016-10-04T01:09:31.613Z,1043.28
2016-10-04T01:10:31.606Z,1043.25
2016-10-04T01:11:31.601Z,1043.24
2016-10-04T01:12:31.594Z,1043.22
2016-10-04T01:13:31.587Z,1043.26
2016-10-04T01:14:31.583Z,1043.24
2016-10-04T01:15:31.577Z,1043.25
2016-10-04T01:16:31.568Z,1043.24
2016-10-04T01:17:31.564Z,1043.27
2016-10-04T01:18:32.359Z,1043.27
2016-10-04T01:19:31.549Z,1043.29
2016-10-04T01:20:32.245Z,1043.25
2016-10-04T01:21:31.537Z,1043.22
2016-10-04T01:22:31.535Z,1043.25
2016-10-04T01:23:31.523Z,1043.28
2016-10-04T01:24:31.518Z,1043.29
2016-10-04T01:25:31.512Z,1043.25
2016-10-04T01:26:31.505Z,1043.24
2016-10-04T01:27:31.999Z,1043.34
2016-10-04T01:28:31.490Z,1043.34
2016-10-04T01:30:31.479Z,1043.32
2016-10-04T01:31:31.470Z,1043.35
2016-10-04T01:32:31.464Z,1043.3
2016-10-04T01:33:31.460Z,1043.31
2016-10-04T01:34:31.450Z,1043.37
2016-10-04T01:35:31.697Z,1043.38
2016-10-04T01:36:31.440Z,1043.42
2016-10-04T01:37:31.430Z,1043.32
2016-10-04T01:38:31.424Z,1043.3
2016-10-04T01:39:31.419Z,1043.32
2016-10-04T01:40:31.762Z,1043.38
2016-10-04T01:41:31.406Z,1043.42
2016-10-04T01:42:31.398Z,1043.37
2016-10-04T01:43:31.394Z,1043.35
2016-10-04T01:44:31.387Z,1043.39
2016-10-04T01:45:31.630Z,1043.32
2016-10-04T01:46:31.374Z,1043.29
2016-10-04T01:47:31.370Z,1043.25
2016-10-04T01:48:31.359Z,1043.24
2016-10-04T01:49:31.353Z,1043.32
2016-10-04T01:50:31.599Z,1043.35
2016-10-04T01:51:31.342Z,1043.31
2016-10-04T01:52:31.337Z,1043.27
2016-10-04T01:53:31.326Z,1043.17
2016-10-04T01:54:31.321Z,1043.23
2016-10-04T01:55:31.316Z,1043.3
2016-10-04T01:56:31.308Z,1043.29
2016-10-04T01:57:31.301Z,1043.34
2016-10-04T01:58:31.293Z,1043.31
2016-10-04T01:59:31.287Z,1043.26
2016-10-04T02:00:31.282Z,1043.29
2016-10-04T02:01:31.274Z,1043.19
2016-10-04T02:02:31.268Z,1043.18
2016-10-04T02:03:31.261Z,1043.22
2016-10-04T02:04:31.255Z,1043.24
2016-10-04T02:05:31.248Z,1043.22
2016-10-04T02:06:31.243Z,1043.22
2016-10-04T02:07:31.236Z,1043.26
2016-10-04T02:08:31.228Z,1043.25
2016-10-04T02:09:31.222Z,1043.23
2016-10-04T02:10:31.715Z,1043.21
2016-10-04T02:11:31.210Z,1043.27
2016-10-04T02:12:31.204Z,1043.27
2016-10-04T02:13:31.196Z,1043.26
2016-10-04T02:14:31.189Z,1043.31
2016-10-04T02:15:31.180Z,1043.3
2016-10-04T02:16:31.174Z,1043.25
2016-10-04T02:17:31.169Z,1043.24
2016-10-04T02:18:31.162Z,1043.27
2016-10-04T02:19:31.157Z,1043.29
2016-10-04T02:20:31.149Z,1043.16
2016-10-04T02:21:31.142Z,1043.19
2016-10-04T02:22:31.704Z,1043.21
2016-10-04T02:23:31.273Z,1043.18
2016-10-04T02:24:31.124Z,1043.15
2016-10-04T02:25:31.118Z,1043.12
2016-10-04T02:26:31.294Z,1043.14
2016-10-04T02:27:31.102Z,1043.13
2016-10-04T02:28:31.097Z,1043.14
2016-10-04T02:29:31.090Z,1043.13
2016-10-04T02:30:31.083Z,1043.13
2016-10-04T02:31:31.075Z,1043.18
2016-10-04T02:32:31.072Z,1043.12
2016-10-04T02:33:31.061Z,1043.08
2016-10-04T02:34:31.056Z,1043.16
2016-10-04T02:35:31.049Z,1043.14
2016-10-04T02:36:31.041Z,1043.14
2016-10-04T02:37:31.036Z,1043.21
2016-10-04T02:38:31.030Z,1043.23
2016-10-04T02:39:31.024Z,1043.2
2016-10-04T02:40:31.016Z,1043.24
2016-10-04T02:41:31.008Z,1043.27
2016-10-04T02:42:31.001Z,1043.29
2016-10-04T02:43:30.993Z,1043.27
2016-10-04T02:44:30.987Z,1043.28
2016-10-04T02:45:30.980Z,1043.29
2016-10-04T02:46:30.977Z,1043.29
2016-10-04T02:47:30.968Z,1043.32
2016-10-04T02:48:30.959Z,1043.36
2016-10-04T02:49:30.953Z,1043.36
2016-10-04T02:50:30.946Z,1043.39
2016-10-04T02:51:30.943Z,1043.49
2016-10-04T02:52:30.933Z,1043.52
2016-10-04T02:53:30.926Z,1043.47
2016-10-04T02:54:30.920Z,1043.55
2016-10-04T02:55:30.913Z,1043.54
2016-10-04T02:56:30.905Z,1043.52
2016-10-04T02:57:30.899Z,1043.53
2016-10-04T02:58:30.891Z,1043.59
2016-10-04T02:59:30.884Z,1043.56
2016-10-04T03:00:30.878Z,1043.58
2016-10-04T03:01:30.870Z,1043.61
2016-10-04T03:02:30.864Z,1043.64
2016-10-04T03:03:30.857Z,1043.64
2016-10-04T03:04:30.851Z,1043.63
2016-10-04T03:05:30.845Z,1043.66
2016-10-04T03:06:30.836Z,1043.83
2016-10-04T03:07:30.830Z,1043.79
2016-10-04T03:08:30.825Z,1043.78
2016-10-04T03:09:30.817Z,1043.8
2016-10-04T03:10:30.809Z,1043.86
2016-10-04T03:11:30.802Z,1043.86
2016-10-04T03:12:30.794Z,1043.87
2016-10-04T03:13:30.788Z,1043.93
2016-10-04T03:14:30.780Z,1043.94
2016-10-04T03:15:30.776Z,1043.94
2016-10-04T03:16:30.770Z,1043.9
2016-10-04T03:17:30.762Z,1043.96
2016-10-04T03:18:30.753Z,1043.93
2016-10-04T03:19:30.748Z,1043.91
2016-10-04T03:20:30.739Z,1043.93
2016-10-04T03:21:30.732Z,1043.97
2016-10-04T03:22:30.727Z,1043.96
2016-10-04T03:23:30.717Z,1043.94
2016-10-04T03:24:30.713Z,1044.05
2016-10-04T03:25:30.704Z,1044.06
2016-10-04T03:26:30.705Z,1044.01
2016-10-04T03:27:30.689Z,1044
2016-10-04T03:28:30.683Z,1044.03
2016-10-04T03:29:30.677Z,1043.99
2016-10-04T03:30:30.669Z,1044.04
2016-10-04T03:31:30.662Z,1044
2016-10-04T03:32:30.656Z,1044.04
2016-10-04T03:33:30.649Z,1044.05
2016-10-04T03:34:30.640Z,1044.07
2016-10-04T03:35:30.635Z,1043.95
2016-10-04T03:36:30.629Z,1044
2016-10-04T03:37:30.733Z,1043.99
2016-10-04T03:38:30.615Z,1044.01
2016-10-04T03:39:30.607Z,1043.99
2016-10-04T03:40:30.720Z,1044.03
2016-10-04T03:41:31.062Z,1044.07
2016-10-04T03:42:30.584Z,1044.07
2016-10-04T03:43:30.578Z,1044.05
2016-10-04T03:44:30.571Z,1044.11
2016-10-04T03:45:30.565Z,1044.05
2016-10-04T03:46:30.557Z,1044.06
2016-10-04T03:47:30.551Z,1044.04
2016-10-04T03:48:30.543Z,1044.07
2016-10-04T03:49:30.538Z,1044.04
2016-10-04T03:50:30.531Z,1043.99
2016-10-04T03:51:30.531Z,1044.02
2016-10-04T03:52:30.515Z,1044.03
2016-10-04T03:53:30.510Z,1044.08
2016-10-04T03:54:30.553Z,1044.1
2016-10-04T03:56:30.490Z,1044.11
2016-10-04T03:57:30.479Z,1044.11
2016-10-04T03:58:30.473Z,1044.17
2016-10-04T03:59:30.468Z,1044.15
2016-10-04T04:00:30.458Z,1044.17
2016-10-04T04:01:30.454Z,1044.18
2016-10-04T04:02:30.447Z,1044.2
2016-10-04T04:03:30.441Z,1044.24
2016-10-04T04:04:30.631Z,1044.21
2016-10-04T04:05:30.423Z,1044.27
2016-10-04T04:06:30.419Z,1044.34
2016-10-04T04:07:30.411Z,1044.4
2016-10-04T04:08:30.403Z,1044.37
2016-10-04T04:09:30.398Z,1044.39
2016-10-04T04:10:30.390Z,1044.42
2016-10-04T04:11:30.383Z,1044.41
2016-10-04T04:12:30.374Z,1044.46
2016-10-04T04:13:30.368Z,1044.54
2016-10-04T04:14:30.363Z,1044.46
2016-10-04T04:15:30.355Z,1044.51
2016-10-04T04:16:30.345Z,1044.52
2016-10-04T04:17:30.339Z,1044.53
2016-10-04T04:18:30.334Z,1044.58
2016-10-04T04:19:30.324Z,1044.6
2016-10-04T04:20:30.318Z,1044.5
2016-10-04T04:21:30.310Z,1044.54
2016-10-04T04:22:30.307Z,1044.62
2016-10-04T04:23:30.298Z,1044.67
2016-10-04T04:24:30.290Z,1044.67
2016-10-04T04:25:30.282Z,1044.57
2016-10-04T04:26:30.276Z,1044.57
2016-10-04T04:27:30.270Z,1044.63
2016-10-04T04:28:30.261Z,1044.69
2016-10-04T04:29:30.253Z,1044.73
2016-10-04T04:30:30.248Z,1044.73
2016-10-04T04:31:30.242Z,1044.81
2016-10-04T04:32:30.233Z,1044.83
2016-10-04T04:33:30.228Z,1044.86
2016-10-04T04:34:30.217Z,1044.8
2016-10-04T04:35:30.211Z,1044.93
2016-10-04T04:36:30.205Z,1044.92
2016-10-04T04:37:30.196Z,1044.83
2016-10-04T04:38:30.189Z,1044.79
2016-10-04T04:39:30.184Z,1044.84
2016-10-04T04:40:30.174Z,1044.82
2016-10-04T04:41:30.169Z,1044.8
2016-10-04T04:42:30.162Z,1044.81
2016-10-04T04:43:30.156Z,1044.81
2016-10-04T04:44:30.148Z,1044.8
2016-10-04T04:45:30.140Z,1044.89
2016-10-04T04:46:30.263Z,1044.9
2016-10-04T04:47:30.583Z,1044.83
2016-10-04T04:48:30.117Z,1044.93
2016-10-04T04:49:30.110Z,1044.85
2016-10-04T04:50:30.102Z,1044.86
2016-10-04T04:51:30.097Z,1044.9
2016-10-04T04:52:30.088Z,1044.96
2016-10-04T04:53:30.082Z,1045
2016-10-04T04:54:30.076Z,1045
2016-10-04T04:55:30.066Z,1045.01
2016-10-04T04:56:30.060Z,1045.03
2016-10-04T04:57:31.038Z,1045.01
2016-10-04T04:58:30.423Z,1045.08
2016-10-04T04:59:30.039Z,1045.13
2016-10-04T05:00:30.030Z,1045.14
2016-10-04T05:01:30.025Z,1045.19
2016-10-04T05:02:30.017Z,1045.11
2016-10-04T05:03:30.010Z,1045.15
2016-10-04T05:04:30.001Z,1045.16
2016-10-04T05:05:29.998Z,1045.18
2016-10-04T05:06:29.986Z,1045.22
2016-10-04T05:07:29.981Z,1045.22
2016-10-04T05:08:29.972Z,1045.23
2016-10-04T05:09:29.963Z,1045.26
2016-10-04T05:10:29.958Z,1045.26
2016-10-04T05:11:29.950Z,1045.31
2016-10-04T05:12:29.942Z,1045.38
2016-10-04T05:13:30.585Z,1045.39
2016-10-04T05:14:29.929Z,1045.37
2016-10-04T05:15:30.073Z,1045.39
2016-10-04T05:16:29.915Z,1045.38
2016-10-04T05:17:29.907Z,1045.42
2016-10-04T05:18:29.901Z,1045.47
2016-10-04T05:19:29.891Z,1045.45
2016-10-04T05:20:29.885Z,1045.4
2016-10-04T05:21:29.876Z,1045.4
2016-10-04T05:23:30.315Z,1045.31
2016-10-04T05:25:29.847Z,1045.35
2016-10-04T05:26:29.843Z,1045.31
2016-10-04T05:27:29.833Z,1045.28
2016-10-04T05:28:29.828Z,1046.57
2016-10-04T05:29:29.820Z,1047.03
2016-10-04T05:30:29.812Z,1047.08
2016-10-04T05:31:29.811Z,1047
2016-10-04T05:32:29.798Z,1047.03
2016-10-04T05:33:29.789Z,1047.1
2016-10-04T05:34:29.785Z,1046.98
2016-10-04T05:35:29.774Z,1047.05
2016-10-04T05:36:29.770Z,1047.06
2016-10-04T05:37:29.762Z,1047.01
2016-10-04T05:38:29.755Z,1046.96
2016-10-04T05:39:29.745Z,1046.98
2016-10-04T05:40:29.740Z,1046.86
2016-10-04T05:41:29.731Z,1046.68
2016-10-04T05:42:29.724Z,1046.7
2016-10-04T05:43:29.716Z,1046.45
2016-10-04T05:44:29.710Z,1046.36
2016-10-04T05:45:29.703Z,1046.27
2016-10-04T05:46:29.697Z,1046.28
2016-10-04T05:47:29.689Z,1046.22
2016-10-04T05:48:29.683Z,1046.15
2016-10-04T05:49:29.678Z,1046.02
2016-10-04T05:50:29.668Z,1045.76
2016-10-04T05:51:29.662Z,1045.69
2016-10-04T05:52:29.907Z,1045.59
2016-10-04T05:53:29.659Z,1045.53
2016-10-04T05:54:29.644Z,1045.6
2016-10-04T05:55:29.661Z,1045.38
2016-10-04T05:56:29.631Z,1045.28
2016-10-04T05:57:29.626Z,1045.23
2016-10-04T05:58:29.617Z,1045.29
2016-10-04T05:59:29.615Z,1045.09
2016-10-04T06:00:29.608Z,1045.02
2016-10-04T06:01:29.603Z,1044.89
2016-10-04T06:02:29.597Z,1044.85
2016-10-04T06:03:29.590Z,1045
2016-10-04T06:04:29.586Z,1045.08
2016-10-04T06:05:29.581Z,1045.46
2016-10-04T06:06:29.576Z,1045.72
2016-10-04T06:07:29.570Z,1045.87
2016-10-04T06:08:29.565Z,1046
2016-10-04T06:09:29.557Z,1046.08
2016-10-04T06:10:29.554Z,1046.29
2016-10-04T06:11:29.546Z,1046.38
2016-10-04T06:12:29.539Z,1046.56
2016-10-04T06:13:29.538Z,1046.63
2016-10-04T06:14:29.533Z,1046.7
2016-10-04T06:15:29.525Z,1046.78
2016-10-04T06:16:29.521Z,1046.86
2016-10-04T06:17:29.514Z,1046.82
2016-10-04T06:18:29.510Z,1046.74
2016-10-04T06:19:29.501Z,1046.39
2016-10-04T06:20:29.497Z,1046.15
2016-10-04T06:21:29.490Z,1046.09
2016-10-04T06:22:29.586Z,1045.84
2016-10-04T06:23:29.478Z,1045.67
2016-10-04T06:24:29.473Z,1045.81
2016-10-04T06:25:29.468Z,1045.54
2016-10-04T06:26:29.461Z,1045.34
2016-10-04T06:27:29.458Z,1045.27
2016-10-04T06:28:29.451Z,1045.02
2016-10-04T06:29:29.447Z,1044.91
2016-10-04T06:30:29.440Z,1044.7
2016-10-04T06:31:29.436Z,1044.78
2016-10-04T06:32:29.431Z,1044.47
2016-10-04T06:33:29.976Z,1044.46
2016-10-04T06:34:29.419Z,1044.4
2016-10-04T06:35:29.418Z,1044.26
2016-10-04T06:36:29.662Z,1044.12
2016-10-04T06:37:29.408Z,1044.05
2016-10-04T06:38:29.401Z,1044.04
2016-10-04T06:39:29.397Z,1043.92
2016-10-04T06:42:29.387Z,1043.67
2016-10-04T06:43:29.384Z,1043.58
2016-10-04T06:44:29.380Z,1043.47
2016-10-04T06:45:29.374Z,1043.4
2016-10-04T06:46:29.373Z,1043.21
2016-10-04T06:47:29.368Z,1043.37
2016-10-04T06:48:29.364Z,1043.2
2016-10-04T06:49:29.363Z,1043.21
2016-10-04T06:50:29.360Z,1043.22
2016-10-04T06:51:29.357Z,1043.19
2016-10-04T06:52:29.353Z,1042.93
2016-10-04T06:53:29.352Z,1042.98
2016-10-04T06:54:29.349Z,1042.78
2016-10-04T06:55:29.347Z,1042.63
2016-10-04T06:56:29.344Z,1042.49
2016-10-04T06:57:29.342Z,1042.71
2016-10-04T06:58:29.338Z,1042.37
2016-10-04T06:59:29.335Z,1042.17
2016-10-04T07:00:29.336Z,1042.08
2016-10-04T07:01:29.332Z,1041.97
2016-10-04T07:02:29.331Z,1041.78
2016-10-04T07:03:29.329Z,1041.76
2016-10-04T07:04:29.328Z,1041.73
2016-10-04T07:05:29.327Z,1041.74
2016-10-04T07:06:29.329Z,1041.85
2016-10-04T07:07:29.321Z,1041.79
2016-10-04T07:08:29.320Z,1041.68
2016-10-04T07:09:29.321Z,1041.77
2016-10-04T07:10:29.317Z,1041.59
2016-10-04T07:11:29.317Z,1041.68
2016-10-04T07:12:29.317Z,1041.89
2016-10-04T07:13:29.314Z,1041.91
2016-10-04T07:14:29.314Z,1042.01
2016-10-04T07:15:29.311Z,1042.26
2016-10-04T07:16:29.312Z,1042.39
2016-10-04T07:17:29.308Z,1042.69
2016-10-04T07:18:29.309Z,1042.72
2016-10-04T07:19:29.308Z,1042.67
2016-10-04T07:20:29.307Z,1042.68
2016-10-04T07:21:29.317Z,1042.71
2016-10-04T07:22:29.302Z,1042.66
2016-10-04T07:23:29.300Z,1042.74
2016-10-04T07:24:29.301Z,1042.7
2016-10-04T07:25:29.299Z,1042.51
2016-10-04T07:26:29.300Z,1042.73
2016-10-04T07:27:29.296Z,1042.63
2016-10-04T07:28:29.294Z,1042.62
2016-10-04T07:29:29.295Z,1042.55
2016-10-04T07:30:29.292Z,1042.93
2016-10-04T07:31:29.299Z,1042.73
2016-10-04T07:32:29.289Z,1042.59
2016-10-04T07:33:29.290Z,1042.53
2016-10-04T07:34:29.287Z,1042.63
2016-10-04T07:35:29.289Z,1042.65
2016-10-04T07:36:29.285Z,1042.74
2016-10-04T07:37:29.285Z,1042.66
2016-10-04T07:38:29.283Z,1042.7
2016-10-04T07:39:29.281Z,1042.87
2016-10-04T07:40:29.281Z,1043.48
2016-10-04T07:41:29.279Z,1043.73
2016-10-04T07:42:29.280Z,1044.41
2016-10-04T07:43:29.277Z,1044.85
2016-10-04T07:44:29.275Z,1045.23
2016-10-04T07:45:29.272Z,1045.55
2016-10-04T07:46:29.269Z,1045.73
2016-10-04T07:47:29.274Z,1046.16
2016-10-04T07:48:29.267Z,1046.29
2016-10-04T07:49:29.261Z,1046.43
2016-10-04T07:50:29.258Z,1046.82
2016-10-04T07:51:29.258Z,1046.69
2016-10-04T07:52:29.256Z,1046.84
2016-10-04T07:53:29.252Z,1046.99
2016-10-04T07:54:29.445Z,1047.17
2016-10-04T07:55:29.241Z,1047.16
2016-10-04T07:56:29.241Z,1047.18
2016-10-04T07:57:29.235Z,1047.4
2016-10-04T07:59:29.226Z,1047.4
2016-10-04T08:00:29.523Z,1047.5
2016-10-04T08:01:29.270Z,1047.47
2016-10-04T08:02:29.213Z,1047.42
